Time;durP1;ratioP1;P1;durP2;ratioP2;P2;SDS_P1;SDS_P2;PMS_P1;PMS_P2;Temp;Humidity;BMP_temperature;BMP_pressure;BME280_temperature;BME280_humidity;BME280_pressure;Samples;Min_cycle;Max_cycle;Signal;HPM_P1;HPM_P2
2022/10/27 00:00:52;;;;;;;;;;;;;;;9.57;49.54;96294.72;4983176;28;20376;-77
2022/10/27 00:03:17;;;;;;;;;;;;;;;9.55;47.79;96282.53;4982340;28;19990;-77
2022/10/27 00:05:43;;;;;;;;;;;;;;;9.42;47.86;96285.63;4981747;28;20029;-77
2022/10/27 00:08:11;;;;;;;;;;;;;;;9.39;48.30;96291.25;4974148;28;19994;-78
2022/10/27 00:10:37;;;;;;;;;;;;;;;9.42;48.56;96290.94;4964634;28;19994;-79
2022/10/27 00:13:05;;;;;;;;;;;;;;;9.42;49.14;96294.41;4983117;28;20092;-78
2022/10/27 00:15:30;;;;;;;;;;;;;;;9.52;50.38;96298.81;4964659;28;19994;-76
2022/10/27 00:17:55;;;;;;;;;;;;;;;9.52;49.70;96294.31;4965348;28;20151;-77
2022/10/27 00:20:20;;;;;;;;;;;;;;;9.45;49.37;96296.75;4982514;28;19978;-78
2022/10/27 00:22:46;;;;;;;;;;;;;;;9.37;49.41;96290.53;4982272;28;20002;-78
2022/10/27 00:25:11;;;;;;;;;;;;;;;9.41;50.42;96289.25;4982462;28;19970;-77
2022/10/27 00:27:36;;;;;;;;;;;;;;;9.38;50.57;96298.38;4981727;28;19986;-76
2022/10/27 00:30:01;;;;;;;;;;;;;;;9.39;50.47;96296.56;4945561;28;20589;-76
2022/10/27 00:32:27;;;;;;;;;;;;;;;9.33;49.91;96290.88;4982177;28;20049;-79
2022/10/27 00:34:52;;;;;;;;;;;;;;;9.41;50.76;96289.25;4981701;28;19996;-77
2022/10/27 00:37:17;;;;;;;;;;;;;;;9.40;50.21;96288.44;4963111;28;20427;-76
2022/10/27 00:39:42;;;;;;;;;;;;;;;9.41;51.24;96286.59;4962207;28;20056;-76
2022/10/27 00:42:09;;;;;;;;;;;;;;;9.43;50.09;96285.47;4979836;28;20123;-79
2022/10/27 00:44:35;;;;;;;;;;;;;;;9.39;49.69;96283.25;4963567;28;20438;-76
2022/10/27 00:47:04;;;;;;;;;;;;;;;9.31;49.36;96278.69;4962191;28;20462;-79
2022/10/27 00:49:30;;;;;;;;;;;;;;;9.24;49.00;96286.47;4979466;28;20503;-78
2022/10/27 00:52:05;;;;;;;;;;;;;;;9.21;49.39;96292.06;4963318;28;20017;-76
2022/10/27 00:54:32;;;;;;;;;;;;;;;9.23;50.35;96294.59;4947718;28;19997;-78
2022/10/27 00:56:57;;;;;;;;;;;;;;;9.24;49.19;96294.44;4963158;28;19962;-76
2022/10/27 00:59:22;;;;;;;;;;;;;;;9.33;50.27;96288.22;4980041;28;20458;-76
2022/10/27 01:01:49;;;;;;;;;;;;;;;9.26;49.21;96288.97;4980057;28;20331;-79
2022/10/27 01:04:14;;;;;;;;;;;;;;;9.16;49.62;96286.41;4978727;28;20348;-79
2022/10/27 01:06:39;;;;;;;;;;;;;;;9.14;49.43;96291.00;4962071;28;19994;-79
2022/10/27 01:09:04;;;;;;;;;;;;;;;9.06;48.91;96284.66;4979486;28;20619;-79
2022/10/27 01:11:30;;;;;;;;;;;;;;;9.12;49.39;96290.34;4978864;28;19998;-78
2022/10/27 01:13:55;;;;;;;;;;;;;;;9.13;48.82;96294.66;4978453;28;19998;-79
2022/10/27 01:16:23;;;;;;;;;;;;;;;9.19;49.73;96284.25;4978908;28;20037;-79
2022/10/27 01:18:57;;;;;;;;;;;;;;;9.18;49.82;96285.25;4978130;28;20073;-79
2022/10/27 01:21:28;;;;;;;;;;;;;;;9.24;50.40;96289.13;4965003;28;20645;-79
2022/10/27 01:24:02;;;;;;;;;;;;;;;9.26;49.82;96283.66;4983325;28;20538;-79
2022/10/27 01:26:46;;;;;;;;;;;;;;;9.16;48.79;96289.91;4965615;28;20001;-79
2022/10/27 01:29:30;;;;;;;;;;;;;;;8.95;49.93;96292.84;4983276;28;20052;-79
2022/10/27 01:32:04;;;;;;;;;;;;;;;9.00;50.06;96295.88;4982427;28;19998;-79
2022/10/27 01:34:37;;;;;;;;;;;;;;;9.08;50.14;96297.78;4982652;28;20459;-79
2022/10/27 01:37:26;;;;;;;;;;;;;;;9.06;49.61;96291.78;4965370;28;20193;-79
2022/10/27 01:39:54;;;;;;;;;;;;;;;9.11;50.09;96297.47;4976493;28;20470;-78
2022/10/27 01:42:42;;;;;;;;;;;;;;;9.12;50.14;96293.84;4983067;28;20032;-79
2022/10/27 01:45:08;;;;;;;;;;;;;;;9.07;50.32;96291.63;4974873;28;20365;-78
2022/10/27 01:47:33;;;;;;;;;;;;;;;8.89;48.82;96288.94;4965692;28;20084;-79
2022/10/27 01:49:59;;;;;;;;;;;;;;;8.81;49.25;96289.69;4966140;28;20089;-79
2022/10/27 01:52:36;;;;;;;;;;;;;;;8.76;48.85;96288.47;4983833;28;19982;-79
2022/10/27 01:55:02;;;;;;;;;;;;;;;8.67;48.19;96295.53;4966147;28;19998;-79
2022/10/27 01:57:37;;;;;;;;;;;;;;;8.57;48.21;96290.28;4965668;28;20295;-79
2022/10/27 02:00:03;;;;;;;;;;;;;;;8.63;49.09;96299.44;4966830;28;20450;-79
2022/10/27 02:02:28;;;;;;;;;;;;;;;8.68;49.61;96294.53;4983281;28;20121;-79
2022/10/27 02:05:04;;;;;;;;;;;;;;;8.73;50.26;96294.91;4984241;28;20654;-79
2022/10/27 02:07:35;;;;;;;;;;;;;;;8.83;51.11;96289.53;4965919;28;19990;-79
2022/10/27 02:10:10;;;;;;;;;;;;;;;8.90;51.20;96293.25;4982766;28;20041;-78
2022/10/27 02:12:38;;;;;;;;;;;;;;;9.02;51.30;96287.75;4983839;28;20057;-79
2022/10/27 02:15:26;;;;;;;;;;;;;;;9.06;51.24;96289.13;4958190;28;20005;-79
2022/10/27 02:17:52;;;;;;;;;;;;;;;9.04;49.68;96289.28;4951446;28;19987;-79
2022/10/27 02:20:19;;;;;;;;;;;;;;;8.94;48.82;96288.47;4966187;28;19977;-79
2022/10/27 02:22:44;;;;;;;;;;;;;;;8.90;49.32;96290.59;4983501;28;20509;-79
2022/10/27 02:25:09;;;;;;;;;;;;;;;8.81;49.40;96295.00;4960431;28;20005;-79
2022/10/27 02:27:43;;;;;;;;;;;;;;;8.81;49.45;96284.38;4959611;28;19997;-79
2022/10/27 02:30:08;;;;;;;;;;;;;;;8.87;50.43;96282.13;4961046;28;20335;-79
2022/10/27 02:32:33;;;;;;;;;;;;;;;8.82;49.90;96283.41;4982135;28;20068;-78
2022/10/27 02:34:59;;;;;;;;;;;;;;;8.59;48.90;96279.50;4959424;28;20494;-78
2022/10/27 02:37:25;;;;;;;;;;;;;;;8.52;49.37;96288.06;4982342;28;20052;-79
2022/10/27 02:39:50;;;;;;;;;;;;;;;8.54;50.24;96278.13;4983837;28;20733;-79
2022/10/27 02:42:16;;;;;;;;;;;;;;;8.56;49.68;96284.13;4982656;28;20072;-78
2022/10/27 02:44:41;;;;;;;;;;;;;;;8.49;49.35;96283.03;4958895;28;19966;-79
2022/10/27 02:47:06;;;;;;;;;;;;;;;8.35;49.35;96280.88;4982148;28;20060;-78
2022/10/27 02:49:31;;;;;;;;;;;;;;;8.30;48.97;96286.66;4982657;28;19994;-79
2022/10/27 02:51:57;;;;;;;;;;;;;;;8.37;50.36;96286.88;4964615;28;20335;-79
2022/10/27 02:54:22;;;;;;;;;;;;;;;8.40;50.14;96282.09;4982837;28;20132;-79
2022/10/27 02:56:47;;;;;;;;;;;;;;;8.46;50.26;96277.22;4983031;28;20482;-79
2022/10/27 02:59:12;;;;;;;;;;;;;;;8.39;50.08;96275.13;4982135;28;19990;-79
2022/10/27 03:01:38;;;;;;;;;;;;;;;8.22;49.90;96275.91;4982245;28;19990;-79
2022/10/27 03:04:03;;;;;;;;;;;;;;;8.19;49.32;96274.38;4982955;28;19989;-78
2022/10/27 03:06:28;;;;;;;;;;;;;;;8.09;50.18;96276.28;4958295;28;19994;-79
2022/10/27 03:08:53;;;;;;;;;;;;;;;8.08;50.57;96272.78;4983025;28;19993;-79
2022/10/27 03:11:19;;;;;;;;;;;;;;;8.20;50.20;96276.09;4965056;28;20287;-79
2022/10/27 03:13:44;;;;;;;;;;;;;;;8.19;50.68;96271.75;4964860;28;19993;-79
2022/10/27 03:16:09;;;;;;;;;;;;;;;8.22;50.14;96279.41;4959100;28;20032;-79
2022/10/27 03:18:34;;;;;;;;;;;;;;;8.25;49.95;96280.94;4982384;28;19994;-79
2022/10/27 03:20:59;;;;;;;;;;;;;;;8.27;50.45;96285.09;4982852;28;20541;-78
2022/10/27 03:23:25;;;;;;;;;;;;;;;8.28;49.41;96281.47;4981982;28;20012;-79
2022/10/27 03:25:50;;;;;;;;;;;;;;;8.23;49.75;96281.06;4982353;28;20076;-78
2022/10/27 03:28:15;;;;;;;;;;;;;;;8.18;49.86;96283.34;4965301;28;20451;-79
2022/10/27 03:30:41;;;;;;;;;;;;;;;8.16;49.27;96280.00;4961222;28;20494;-79
2022/10/27 03:33:06;;;;;;;;;;;;;;;8.20;49.23;96280.53;4982327;28;19974;-79
2022/10/27 03:35:31;;;;;;;;;;;;;;;8.16;49.88;96280.00;4964616;28;20403;-79
2022/10/27 03:37:57;;;;;;;;;;;;;;;8.02;49.86;96287.44;4981861;28;19988;-79
2022/10/27 03:40:22;;;;;;;;;;;;;;;8.11;50.28;96284.91;4964765;28;20186;-79
2022/10/27 03:42:47;;;;;;;;;;;;;;;8.28;51.29;96289.44;4946262;28;19986;-79
2022/10/27 03:45:13;;;;;;;;;;;;;;;8.35;50.42;96292.34;4980999;28;20073;-79
2022/10/27 03:47:38;;;;;;;;;;;;;;;8.38;50.13;96293.84;4981517;28;20018;-79
2022/10/27 03:50:03;;;;;;;;;;;;;;;8.40;49.98;96287.41;4981296;28;20009;-80
2022/10/27 03:52:29;;;;;;;;;;;;;;;8.36;50.33;96290.53;4964491;28;20230;-79
2022/10/27 03:54:54;;;;;;;;;;;;;;;8.36;51.09;96287.88;4957483;28;20268;-79
2022/10/27 03:57:19;;;;;;;;;;;;;;;8.41;51.54;96291.75;4981674;28;19974;-80
2022/10/27 03:59:44;;;;;;;;;;;;;;;8.50;51.94;96284.72;4958830;28;20028;-79
2022/10/27 04:02:10;;;;;;;;;;;;;;;8.59;52.11;96290.94;4980681;28;20568;-79
2022/10/27 04:04:35;;;;;;;;;;;;;;;8.65;51.71;96295.69;4981895;28;20044;-79
2022/10/27 04:07:00;;;;;;;;;;;;;;;8.72;52.27;96295.06;4981272;28;20077;-80
2022/10/27 04:09:25;;;;;;;;;;;;;;;8.73;52.32;96289.59;4964026;28;20029;-80
2022/10/27 04:11:51;;;;;;;;;;;;;;;8.77;52.20;96288.31;4963007;28;19973;-79
2022/10/27 04:14:16;;;;;;;;;;;;;;;8.84;52.54;96287.72;4964394;28;20613;-78
2022/10/27 04:16:41;;;;;;;;;;;;;;;8.86;51.76;96288.41;4962526;28;19974;-79
2022/10/27 04:19:06;;;;;;;;;;;;;;;8.83;51.24;96289.53;4982017;28;20020;-79
2022/10/27 04:21:32;;;;;;;;;;;;;;;8.86;51.69;96278.63;4964560;28;20335;-79
2022/10/27 04:23:57;;;;;;;;;;;;;;;8.86;51.20;96277.78;4983387;28;20097;-79
2022/10/27 04:26:22;;;;;;;;;;;;;;;8.85;51.53;96282.28;4964670;28;19994;-79
2022/10/27 04:28:47;;;;;;;;;;;;;;;8.79;50.75;96283.72;4965566;28;20176;-79
2022/10/27 04:31:13;;;;;;;;;;;;;;;8.72;52.08;96277.31;4982366;28;19990;-79
2022/10/27 04:33:38;;;;;;;;;;;;;;;8.69;52.08;96280.28;4964529;28;20498;-79
2022/10/27 04:36:05;;;;;;;;;;;;;;;8.67;53.20;96285.72;4943597;28;19975;-79
2022/10/27 04:38:30;;;;;;;;;;;;;;;8.63;52.91;96288.81;4979506;28;19995;-79
2022/10/27 04:40:58;;;;;;;;;;;;;;;8.72;53.75;96287.94;4963456;28;20517;-79
2022/10/27 04:43:23;;;;;;;;;;;;;;;8.79;53.65;96280.19;4959837;28;19998;-79
2022/10/27 04:45:48;;;;;;;;;;;;;;;8.66;54.25;96275.25;4981107;28;20187;-79
2022/10/27 04:48:14;;;;;;;;;;;;;;;8.52;55.26;96285.41;4980870;28;19994;-78
2022/10/27 04:50:39;;;;;;;;;;;;;;;8.55;55.74;96281.63;4980787;28;20421;-79
2022/10/27 04:53:04;;;;;;;;;;;;;;;8.46;55.14;96282.53;4981161;28;19978;-80
2022/10/27 04:55:30;;;;;;;;;;;;;;;8.33;55.40;96272.25;4956291;28;20526;-79
2022/10/27 04:57:56;;;;;;;;;;;;;;;8.48;55.74;96273.41;4980745;28;19986;-79
2022/10/27 05:00:21;;;;;;;;;;;;;;;8.77;55.86;96274.22;4979896;28;20005;-79
2022/10/27 05:02:53;;;;;;;;;;;;;;;8.92;54.76;96263.91;4980605;28;19997;-79
2022/10/27 05:05:19;;;;;;;;;;;;;;;9.08;53.97;96265.91;4964116;28;20021;-79
2022/10/27 05:07:49;;;;;;;;;;;;;;;9.10;53.68;96266.59;4981101;28;20025;-79
2022/10/27 05:10:14;;;;;;;;;;;;;;;8.87;53.65;96268.84;4980677;28;20364;-80
2022/10/27 05:12:40;;;;;;;;;;;;;;;8.84;53.75;96272.63;4982043;28;20057;-79
2022/10/27 05:15:05;;;;;;;;;;;;;;;9.00;53.63;96265.81;4959084;28;19993;-80
2022/10/27 05:17:30;;;;;;;;;;;;;;;9.16;53.65;96267.78;4981785;28;19978;-80
2022/10/27 05:19:56;;;;;;;;;;;;;;;9.10;53.17;96276.38;4982047;28;19976;-79
2022/10/27 05:22:21;;;;;;;;;;;;;;;8.82;53.51;96272.78;4980863;28;19990;-79
2022/10/27 05:24:46;;;;;;;;;;;;;;;8.72;54.17;96279.97;4981619;28;20871;-80
2022/10/27 05:27:11;;;;;;;;;;;;;;;8.54;54.92;96280.78;4981409;28;19986;-79
2022/10/27 05:29:36;;;;;;;;;;;;;;;8.77;54.95;96276.88;4979752;28;20276;-79
2022/10/27 05:32:02;;;;;;;;;;;;;;;8.94;54.35;96275.19;4982071;28;19981;-79
2022/10/27 05:34:27;;;;;;;;;;;;;;;8.99;54.40;96278.28;4981754;28;20501;-80
2022/10/27 05:36:52;;;;;;;;;;;;;;;9.01;53.97;96280.78;4965060;28;19978;-80
2022/10/27 05:39:17;;;;;;;;;;;;;;;9.18;54.49;96276.47;4982260;28;19990;-79
2022/10/27 05:41:43;;;;;;;;;;;;;;;9.21;54.23;96276.13;4982293;28;20018;-80
2022/10/27 05:44:08;;;;;;;;;;;;;;;9.33;54.06;96277.59;4982694;28;20478;-80
2022/10/27 05:46:33;;;;;;;;;;;;;;;9.38;53.64;96276.28;4981476;28;20452;-80
2022/10/27 05:48:58;;;;;;;;;;;;;;;9.32;53.23;96275.09;4982759;28;20013;-79
2022/10/27 05:51:24;;;;;;;;;;;;;;;9.41;53.80;96281.28;4982115;28;20113;-79
2022/10/27 05:53:49;;;;;;;;;;;;;;;9.49;53.69;96277.84;4959349;28;20367;-80
2022/10/27 05:56:15;;;;;;;;;;;;;;;9.55;53.78;96283.38;4962816;28;19970;-80
2022/10/27 05:58:40;;;;;;;;;;;;;;;9.64;53.90;96281.63;4964629;28;19998;-80
2022/10/27 06:01:05;;;;;;;;;;;;;;;9.72;53.57;96280.81;4982547;28;19976;-81
2022/10/27 06:03:30;;;;;;;;;;;;;;;9.79;53.56;96284.53;4965286;28;20049;-80
2022/10/27 06:05:56;;;;;;;;;;;;;;;9.89;53.56;96291.59;4982011;28;20001;-80
2022/10/27 06:08:22;;;;;;;;;;;;;;;9.96;53.26;96293.44;4986579;28;20059;-80
2022/10/27 06:10:48;;;;;;;;;;;;;;;10.06;53.23;96295.19;4962319;28;20037;-80
2022/10/27 06:13:13;;;;;;;;;;;;;;;10.14;53.22;96295.25;4984517;28;20182;-67
2022/10/27 06:15:38;;;;;;;;;;;;;;;10.22;52.74;96292.63;4982767;28;20040;-67
2022/10/27 06:18:05;;;;;;;;;;;;;;;10.29;53.06;96291.97;4982041;28;20049;-67
2022/10/27 06:20:30;;;;;;;;;;;;;;;10.31;52.78;96290.84;4977989;28;19978;-67
2022/10/27 06:22:56;;;;;;;;;;;;;;;10.36;52.30;96287.69;4980343;28;19986;-67
2022/10/27 06:25:21;;;;;;;;;;;;;;;10.34;51.99;96290.50;4980250;28;20517;-67
2022/10/27 06:27:46;;;;;;;;;;;;;;;10.30;52.05;96286.50;4983315;28;19976;-67
2022/10/27 06:30:11;;;;;;;;;;;;;;;10.37;51.82;96286.69;4982986;28;19986;-67
2022/10/27 06:32:37;;;;;;;;;;;;;;;10.43;51.77;96291.38;4982895;28;20017;-67
2022/10/27 06:35:02;;;;;;;;;;;;;;;10.54;51.85;96290.25;4981738;28;20458;-67
2022/10/27 06:37:28;;;;;;;;;;;;;;;10.56;51.81;96295.41;4982187;28;20441;-67
2022/10/27 06:39:54;;;;;;;;;;;;;;;10.62;51.70;96297.44;4981208;28;19978;-67
2022/10/27 06:42:21;;;;;;;;;;;;;;;10.69;51.69;96300.28;4981074;28;20104;-67
2022/10/27 06:44:46;;;;;;;;;;;;;;;10.79;51.73;96293.00;4982244;28;20189;-67
2022/10/27 06:47:11;;;;;;;;;;;;;;;10.95;51.49;96288.69;4981577;28;20089;-67
2022/10/27 06:49:36;;;;;;;;;;;;;;;11.00;51.65;96289.03;4981169;28;20045;-67
2022/10/27 06:52:02;;;;;;;;;;;;;;;11.05;51.47;96286.69;4981234;28;20001;-67
2022/10/27 06:54:27;;;;;;;;;;;;;;;11.16;51.44;96288.25;4981127;28;20451;-67
2022/10/27 06:56:52;;;;;;;;;;;;;;;11.26;51.50;96294.25;4982893;28;20269;-68
2022/10/27 06:59:17;;;;;;;;;;;;;;;11.37;51.43;96300.25;4980592;28;19997;-67
2022/10/27 07:01:43;;;;;;;;;;;;;;;11.44;51.75;96301.25;4979445;28;20044;-67
2022/10/27 07:04:08;;;;;;;;;;;;;;;11.51;51.53;96294.25;4979373;28;20128;-68
2022/10/27 07:06:33;;;;;;;;;;;;;;;11.68;51.39;96294.25;4979180;28;20040;-68
2022/10/27 07:08:58;;;;;;;;;;;;;;;11.73;50.79;96297.22;4981750;28;20039;-68
2022/10/27 07:11:27;;;;;;;;;;;;;;;11.86;52.04;96302.06;4979320;28;20041;-67
2022/10/27 07:13:52;;;;;;;;;;;;;;;11.95;49.79;96304.69;4978360;28;20506;-67
2022/10/27 07:16:17;;;;;;;;;;;;;;;11.86;49.97;96309.22;4980313;28;19974;-67
2022/10/27 07:18:43;;;;;;;;;;;;;;;11.88;48.65;96305.41;4978981;28;19990;-68
2022/10/27 07:21:08;;;;;;;;;;;;;;;11.96;48.73;96304.53;4980625;28;20115;-67
2022/10/27 07:23:34;;;;;;;;;;;;;;;12.19;48.85;96311.84;4978782;28;20057;-68
2022/10/27 07:25:59;;;;;;;;;;;;;;;12.22;50.56;96311.50;4981246;28;20309;-67
2022/10/27 07:28:24;;;;;;;;;;;;;;;12.27;48.80;96310.97;4978878;28;20864;-68
2022/10/27 07:30:52;;;;;;;;;;;;;;;12.33;50.32;96312.97;4978888;28;19990;-67
2022/10/27 07:33:17;;;;;;;;;;;;;;;12.50;47.57;96307.56;4979501;28;19979;-67
2022/10/27 07:35:42;;;;;;;;;;;;;;;12.66;47.46;96312.00;4981800;28;19970;-68
2022/10/27 07:38:07;;;;;;;;;;;;;;;12.80;46.93;96310.44;4956093;28;20105;-67
2022/10/27 07:40:33;;;;;;;;;;;;;;;12.92;47.66;96310.88;4978109;28;20084;-68
2022/10/27 07:42:59;;;;;;;;;;;;;;;12.90;46.69;96311.06;4981842;28;20556;-68
2022/10/27 07:45:24;;;;;;;;;;;;;;;13.07;46.76;96315.47;4977458;28;19977;-68
2022/10/27 07:47:50;;;;;;;;;;;;;;;13.07;46.97;96316.34;4981119;28;20013;-67
2022/10/27 07:50:16;;;;;;;;;;;;;;;13.21;46.17;96312.06;4980001;28;20112;-67
2022/10/27 07:52:41;;;;;;;;;;;;;;;13.21;45.93;96304.03;4978007;28;19993;-68
2022/10/27 07:55:07;;;;;;;;;;;;;;;13.36;46.01;96301.41;4977034;28;20144;-67
2022/10/27 07:57:32;;;;;;;;;;;;;;;13.41;46.19;96300.88;4978969;28;20100;-67
2022/10/27 07:59:58;;;;;;;;;;;;;;;13.66;46.16;96304.19;4979980;28;19963;-67
2022/10/27 08:02:23;;;;;;;;;;;;;;;13.56;48.25;96301.75;4979114;28;19994;-68
2022/10/27 08:04:48;;;;;;;;;;;;;;;14.00;47.90;96294.03;4979210;28;19982;-68
2022/10/27 08:07:13;;;;;;;;;;;;;;;14.44;47.34;96296.88;4978475;28;20089;-68
2022/10/27 08:09:38;;;;;;;;;;;;;;;14.55;47.32;96300.94;4977464;28;20295;-66
2022/10/27 08:12:04;;;;;;;;;;;;;;;14.71;47.22;96298.06;4961374;28;20024;-67
2022/10/27 08:14:29;;;;;;;;;;;;;;;14.69;47.16;96300.06;4979054;28;20021;-68
2022/10/27 08:16:55;;;;;;;;;;;;;;;14.78;46.53;96303.53;4980059;28;19970;-67
2022/10/27 08:19:21;;;;;;;;;;;;;;;15.01;46.89;96297.19;4979820;28;20000;-68
2022/10/27 08:21:47;;;;;;;;;;;;;;;15.15;46.48;96300.81;4978342;28;19989;-67
2022/10/27 08:24:12;;;;;;;;;;;;;;;15.33;46.14;96295.00;4976453;28;20017;-68
2022/10/27 08:26:37;;;;;;;;;;;;;;;15.38;45.95;96293.59;4977932;28;19987;-68
2022/10/27 08:29:02;;;;;;;;;;;;;;;15.51;45.47;96287.53;4981325;28;19990;-67
2022/10/27 08:31:28;;;;;;;;;;;;;;;15.18;44.91;96296.94;4978233;28;20769;-67
2022/10/27 08:33:53;;;;;;;;;;;;;;;15.26;43.54;96296.00;4973028;28;19994;-68
2022/10/27 08:36:19;;;;;;;;;;;;;;;15.10;43.20;96305.94;4979560;28;19982;-67
2022/10/27 08:38:44;;;;;;;;;;;;;;;15.00;44.18;96306.25;4977433;28;19998;-68
2022/10/27 08:41:33;;;;;;;;;;;;;;;15.21;44.06;96300.06;4978766;28;20271;-68
2022/10/27 08:44:07;;;;;;;;;;;;;;;15.36;43.54;96299.16;4954620;28;19989;-67
2022/10/27 08:46:38;;;;;;;;;;;;;;;15.63;43.38;96298.63;4975828;28;19993;-68
2022/10/27 08:49:19;;;;;;;;;;;;;;;15.68;43.62;96297.00;4977340;28;20141;-68
2022/10/27 08:51:44;;;;;;;;;;;;;;;15.65;43.03;96293.88;4955019;28;20665;-67
2022/10/27 08:54:10;;;;;;;;;;;;;;;16.33;42.66;96287.09;4954688;28;19990;-67
2022/10/27 08:56:38;;;;;;;;;;;;;;;16.26;41.30;96281.69;4959514;28;20128;-68
2022/10/27 08:59:03;;;;;;;;;;;;;;;16.34;42.04;96288.75;4957574;28;20699;-67
2022/10/27 09:01:31;;;;;;;;;;;;;;;16.49;41.88;96286.78;4960067;28;19975;-67
2022/10/27 09:03:56;;;;;;;;;;;;;;;16.78;41.74;96286.69;4958681;28;19993;-67
2022/10/27 09:06:40;;;;;;;;;;;;;;;16.68;40.81;96305.06;4957704;28;20002;-67
2022/10/27 09:09:09;;;;;;;;;;;;;;;16.73;41.25;96295.38;4956340;28;19998;-67
2022/10/27 09:11:47;;;;;;;;;;;;;;;17.04;40.91;96298.59;4957660;28;20238;-65
2022/10/27 09:14:15;;;;;;;;;;;;;;;17.09;39.59;96309.56;4959261;28;19986;-67
2022/10/27 09:16:46;;;;;;;;;;;;;;;17.19;39.38;96306.50;4960294;28;21651;-67
2022/10/27 09:19:12;;;;;;;;;;;;;;;17.34;40.69;96302.81;4959851;28;19991;-67
2022/10/27 09:21:37;;;;;;;;;;;;;;;17.62;40.13;96299.94;4957028;28;19994;-67
2022/10/27 09:24:04;;;;;;;;;;;;;;;17.67;40.34;96297.44;4957445;28;20363;-67
2022/10/27 09:26:30;;;;;;;;;;;;;;;17.46;40.36;96297.63;4949561;28;19988;-67
2022/10/27 09:28:55;;;;;;;;;;;;;;;17.80;39.42;96293.94;4957606;28;19982;-68
2022/10/27 09:31:47;;;;;;;;;;;;;;;17.93;38.80;96292.28;4959500;28;20334;-67
2022/10/27 09:34:26;;;;;;;;;;;;;;;17.84;39.92;96296.22;4931734;28;20085;-67
2022/10/27 09:36:51;;;;;;;;;;;;;;;17.84;39.20;96291.63;4957335;28;20173;-67
2022/10/27 09:39:17;;;;;;;;;;;;;;;18.02;39.09;96298.28;4953022;28;20000;-67
2022/10/27 09:41:42;;;;;;;;;;;;;;;18.04;39.71;96296.19;4960894;28;19988;-68
2022/10/27 09:44:22;;;;;;;;;;;;;;;18.37;39.35;96286.41;4962557;28;19978;-67
2022/10/27 09:46:51;;;;;;;;;;;;;;;18.21;39.36;96287.66;4960435;28;20385;-67
2022/10/27 09:49:17;;;;;;;;;;;;;;;18.50;38.91;96289.06;4956983;28;19987;-68
2022/10/27 09:51:52;;;;;;;;;;;;;;;18.68;38.66;96295.66;4979566;28;20002;-68
2022/10/27 09:54:26;;;;;;;;;;;;;;;18.08;39.13;96286.66;4963547;28;20478;-67
2022/10/27 09:56:52;;;;;;;;;;;;;;;18.47;39.22;96289.47;4981029;28;20015;-68
2022/10/27 09:59:21;;;;;;;;;;;;;;;18.37;38.73;96283.69;4959656;28;19993;-68
2022/10/27 10:01:48;;;;;;;;;;;;;;;18.48;39.07;96280.34;4959052;28;20000;-68
2022/10/27 10:04:17;;;;;;;;;;;;;;;18.61;38.51;96284.91;4982316;28;20332;-68
2022/10/27 10:06:43;;;;;;;;;;;;;;;18.67;39.07;96277.81;4964558;28;19992;-69
2022/10/27 10:09:15;;;;;;;;;;;;;;;17.80;39.77;96285.00;4963885;28;19991;-81
2022/10/27 10:11:40;;;;;;;;;;;;;;;18.17;39.25;96287.28;4966101;28;19994;-82
2022/10/27 10:14:07;;;;;;;;;;;;;;;18.45;38.89;96283.47;4984786;28;19999;-79
2022/10/27 10:16:32;;;;;;;;;;;;;;;18.38;38.45;96290.72;4966949;28;20016;-82
2022/10/27 10:18:57;;;;;;;;;;;;;;;18.39;38.43;96278.94;4981034;28;20044;-81
2022/10/27 10:21:22;;;;;;;;;;;;;;;18.37;39.32;96286.41;4983545;28;19970;-83
2022/10/27 10:23:47;;;;;;;;;;;;;;;18.72;39.10;96275.31;4953760;28;19970;-79
2022/10/27 10:26:20;;;;;;;;;;;;;;;18.47;37.67;96276.00;4984592;28;20008;-81
2022/10/27 10:28:45;;;;;;;;;;;;;;;18.86;38.60;96270.66;4967321;28;19991;-83
2022/10/27 10:31:11;;;;;;;;;;;;;;;18.92;37.32;96277.06;4950210;28;20460;-81
2022/10/27 10:33:40;;;;;;;;;;;;;;;18.76;37.75;96271.13;4966211;28;19993;-81
2022/10/27 10:36:14;;;;;;;;;;;;;;;18.84;38.28;96266.53;4966118;28;19973;-81
2022/10/27 10:38:41;;;;;;;;;;;;;;;19.02;37.52;96265.81;4983090;28;20496;-80
2022/10/27 10:41:06;;;;;;;;;;;;;;;19.40;37.58;96274.94;4983122;28;20458;-82
2022/10/27 10:43:32;;;;;;;;;;;;;;;19.65;36.34;96266.84;4982941;28;19984;-79
2022/10/27 10:45:57;;;;;;;;;;;;;;;19.60;37.03;96264.00;4943865;28;20392;-81
2022/10/27 10:48:33;;;;;;;;;;;;;;;19.64;37.28;96264.38;4983191;28;20393;-80
2022/10/27 10:50:59;;;;;;;;;;;;;;;19.03;37.56;96279.09;4961620;28;20004;-80
2022/10/27 10:53:28;;;;;;;;;;;;;;;19.63;37.46;96265.41;4962171;28;20515;-81
2022/10/27 10:55:54;;;;;;;;;;;;;;;19.77;36.67;96261.56;4963208;28;20608;-80
2022/10/27 10:58:20;;;;;;;;;;;;;;;19.78;37.13;96259.69;4962776;28;19984;-81
2022/10/27 11:01:01;;;;;;;;;;;;;;;18.20;38.93;96256.38;4963304;28;19978;-82
2022/10/27 11:03:28;;;;;;;;;;;;;;;18.24;39.86;96257.59;4953856;28;19992;-81
2022/10/27 11:06:03;;;;;;;;;;;;;;;19.12;38.43;96238.34;4955285;28;20075;-79
2022/10/27 11:08:36;;;;;;;;;;;;;;;19.85;37.13;96245.06;4963525;28;20330;-80
2022/10/27 11:11:02;;;;;;;;;;;;;;;19.21;37.06;96237.06;4962801;28;20316;-76
2022/10/27 11:13:40;;;;;;;;;;;;;;;19.64;37.27;96242.78;4963185;28;20408;-81
2022/10/27 11:16:06;;;;;;;;;;;;;;;20.14;35.56;96228.38;4956724;28;19961;-81
2022/10/27 11:18:50;;;;;;;;;;;;;;;20.33;35.55;96229.19;4954712;28;19988;-82
2022/10/27 11:21:21;;;;;;;;;;;;;;;20.73;34.61;96221.66;4962576;28;19966;-79
2022/10/27 11:23:46;;;;;;;;;;;;;;;20.65;35.16;96224.69;4962023;28;19964;-82
2022/10/27 11:26:12;;;;;;;;;;;;;;;21.01;34.84;96220.25;4962697;28;20006;-81
2022/10/27 11:28:43;;;;;;;;;;;;;;;20.71;34.85;96219.19;4961818;28;20550;-83
2022/10/27 11:31:17;;;;;;;;;;;;;;;20.64;35.03;96217.63;4961960;28;20035;-80
2022/10/27 11:33:42;;;;;;;;;;;;;;;20.79;34.58;96212.63;4960993;28;19980;-82
2022/10/27 11:36:12;;;;;;;;;;;;;;;21.15;33.89;96218.16;4961806;28;19974;-81
2022/10/27 11:38:37;;;;;;;;;;;;;;;21.11;34.01;96217.78;4954355;28;19980;-82
2022/10/27 11:41:13;;;;;;;;;;;;;;;20.58;35.16;96211.22;4961706;28;20387;-81
2022/10/27 11:43:43;;;;;;;;;;;;;;;20.37;35.14;96218.78;4953730;28;19972;-81
2022/10/27 11:46:11;;;;;;;;;;;;;;;20.66;33.72;96213.66;4960863;28;20206;-81
2022/10/27 11:49:00;;;;;;;;;;;;;;;21.09;33.78;96216.38;4961528;28;20017;-81
2022/10/27 11:51:29;;;;;;;;;;;;;;;21.42;32.62;96211.53;4961181;28;20088;-81
2022/10/27 11:53:55;;;;;;;;;;;;;;;21.58;33.58;96215.44;4962850;28;20463;-80
2022/10/27 11:56:44;;;;;;;;;;;;;;;22.08;32.27;96213.31;4980231;28;19961;-84
2022/10/27 11:59:22;;;;;;;;;;;;;;;22.53;31.49;96214.53;4963330;28;20464;-81
2022/10/27 12:01:47;;;;;;;;;;;;;;;23.15;31.93;96204.84;4979429;28;19977;-84
2022/10/27 12:04:18;;;;;;;;;;;;;;;23.98;29.49;96201.78;4980734;28;20036;-82
2022/10/27 12:06:53;;;;;;;;;;;;;;;25.02;28.04;96201.13;4979631;28;19972;-81
2022/10/27 12:09:23;;;;;;;;;;;;;;;25.70;25.83;96202.50;4979864;28;19969;-83
2022/10/27 12:12:03;;;;;;;;;;;;;;;27.82;24.21;96197.13;4980286;28;20036;-80
2022/10/27 12:14:30;;;;;;;;;;;;;;;29.69;21.35;96210.72;4963490;28;19957;-83
2022/10/27 12:17:18;;;;;;;;;;;;;;;30.84;20.43;96203.94;4947782;28;20291;-85
2022/10/27 12:19:44;;;;;;;;;;;;;;;31.86;18.95;96208.13;4971350;28;19949;-80
2022/10/27 12:22:11;;;;;;;;;;;;;;;31.34;19.73;96202.66;4979747;28;20421;-82
2022/10/27 12:24:36;;;;;;;;;;;;;;;30.59;20.36;96201.19;4964240;28;20020;-83
2022/10/27 12:27:20;;;;;;;;;;;;;;;29.84;20.97;96200.66;4980079;28;20013;-84
2022/10/27 12:29:46;;;;;;;;;;;;;;;30.37;20.40;96195.44;4963255;28;19964;-81
2022/10/27 12:32:14;;;;;;;;;;;;;;;30.02;20.85;96188.16;4980570;28;20257;-80
2022/10/27 12:34:41;;;;;;;;;;;;;;;31.58;19.69;96193.47;4962953;28;19922;-82
2022/10/27 12:37:21;;;;;;;;;;;;;;;33.42;17.94;96186.66;4963098;28;20448;-82
2022/10/27 12:40:02;;;;;;;;;;;;;;;34.03;17.21;96197.28;4979776;28;20270;-79
2022/10/27 12:42:30;;;;;;;;;;;;;;;33.97;16.78;96184.72;4960902;28;19921;-83
2022/10/27 12:45:14;;;;;;;;;;;;;;;34.70;16.33;96182.69;4979517;28;20043;-83
2022/10/27 12:47:47;;;;;;;;;;;;;;;36.55;15.59;96181.50;4979980;28;20011;-81
2022/10/27 12:50:28;;;;;;;;;;;;;;;36.66;14.96;96173.59;4961645;28;20375;-81
2022/10/27 12:52:55;;;;;;;;;;;;;;;38.13;13.38;96172.91;4981619;28;19922;-82
2022/10/27 12:55:27;;;;;;;;;;;;;;;39.03;12.64;96173.22;4965502;28;19922;-81